createdAt,value
2018-06-05T00:03:38.812Z,92.80
2018-06-05T00:08:33.365Z,92.40
2018-06-05T00:13:27.894Z,92.20
2018-06-05T00:18:22.438Z,92.30
2018-06-05T00:23:16.958Z,92.60
2018-06-05T00:28:11.496Z,93.30
2018-06-05T00:33:06.101Z,92.30
2018-06-05T00:38:00.660Z,92.20
2018-06-05T00:42:55.186Z,92.50
2018-06-05T00:47:49.708Z,92.50
2018-06-05T00:52:44.241Z,92.40
2018-06-05T00:57:38.802Z,92.90
2018-06-05T01:02:33.334Z,92.90
2018-06-05T01:07:27.868Z,92.50
2018-06-05T01:12:22.393Z,92.90
2018-06-05T01:17:16.930Z,93.00
2018-06-05T01:22:11.459Z,93.10
2018-06-05T01:27:06.090Z,93.60
2018-06-05T01:32:00.633Z,93.80
2018-06-05T01:41:49.404Z,93.30
2018-06-05T01:46:43.999Z,93.20
2018-06-05T01:51:38.523Z,93.40
2018-06-05T01:56:33.130Z,93.50
2018-06-05T02:01:27.666Z,93.90
2018-06-05T02:06:22.191Z,94.20
2018-06-05T02:11:16.955Z,94.10
2018-06-05T02:16:11.489Z,94.00
2018-06-05T02:21:06.023Z,93.80
2018-06-05T02:26:00.545Z,94.20
2018-06-05T02:30:55.206Z,94.30
2018-06-05T02:35:49.818Z,94.20
2018-06-05T02:40:44.349Z,94.50
2018-06-05T02:45:38.894Z,94.10
2018-06-05T02:50:33.446Z,94.40
2018-06-05T02:55:28.018Z,94.20
2018-06-05T03:00:22.549Z,94.20
2018-06-05T03:05:17.104Z,95.10
2018-06-05T03:10:11.640Z,94.50
2018-06-05T03:15:06.482Z,94.20
2018-06-05T03:20:01.014Z,94.20
2018-06-05T03:24:55.592Z,94.30
2018-06-05T03:34:44.871Z,94.80
2018-06-05T03:39:39.433Z,95.00
2018-06-05T03:44:33.955Z,95.00
2018-06-05T03:49:28.532Z,95.00
2018-06-05T03:54:23.021Z,94.80
2018-06-05T03:59:17.607Z,94.80
2018-06-05T04:04:12.151Z,94.90
2018-06-05T04:14:01.393Z,94.80
2018-06-05T04:18:55.931Z,95.00
2018-06-05T04:23:50.499Z,95.00
2018-06-05T04:28:45.065Z,94.80
2018-06-05T04:33:39.595Z,95.00
2018-06-05T04:38:34.147Z,94.90
2018-06-05T04:43:28.673Z,94.60
2018-06-05T04:48:23.206Z,94.40
2018-06-05T04:53:17.819Z,94.10
2018-06-05T04:58:12.354Z,93.60
2018-06-05T05:03:07.098Z,93.00
2018-06-05T05:08:01.640Z,92.40
2018-06-05T05:12:56.181Z,91.80
2018-06-05T05:17:50.783Z,91.10
2018-06-05T05:22:45.327Z,90.80
2018-06-05T05:27:40.194Z,90.30
2018-06-05T05:32:34.714Z,89.50
2018-06-05T05:37:29.250Z,87.80
2018-06-05T05:42:23.795Z,86.90
2018-06-05T05:47:18.332Z,87.50
2018-06-05T05:52:12.869Z,88.90
2018-06-05T05:57:07.451Z,88.20
2018-06-05T06:02:02.011Z,89.00
2018-06-05T06:06:56.546Z,89.60
2018-06-05T06:11:51.120Z,89.00
2018-06-05T06:21:40.165Z,90.30
2018-06-05T06:26:34.711Z,90.70
2018-06-05T06:31:29.296Z,91.10
2018-06-05T06:36:23.847Z,90.30
2018-06-05T06:41:18.626Z,90.00
2018-06-05T06:46:13.199Z,90.10
2018-06-05T06:51:07.762Z,89.60
2018-06-05T06:56:02.358Z,89.20
2018-06-05T07:00:56.909Z,88.40
2018-06-05T07:05:51.499Z,89.80
2018-06-05T07:15:40.594Z,85.00
2018-06-05T07:20:35.125Z,80.90
2018-06-05T07:25:29.703Z,78.70
2018-06-05T07:30:24.304Z,80.10
2018-06-05T07:35:18.899Z,79.70
2018-06-05T07:40:13.458Z,80.30
2018-06-05T07:45:08.011Z,79.30
2018-06-05T07:50:02.656Z,81.30
2018-06-05T07:54:57.156Z,79.60
2018-06-05T07:59:51.779Z,79.10
2018-06-05T08:04:46.351Z,76.40
2018-06-05T08:09:40.964Z,75.40
2018-06-05T08:14:35.527Z,77.30
2018-06-05T08:19:30.072Z,78.10
2018-06-05T08:24:24.629Z,78.80
2018-06-05T08:29:20.390Z,78.30
2018-06-05T08:34:15.064Z,78.00
2018-06-05T08:39:09.863Z,77.30
2018-06-05T08:44:04.633Z,76.60
2018-06-05T08:48:59.183Z,74.20
2018-06-05T08:58:47.989Z,74.30
2018-06-05T09:03:43.464Z,73.20
2018-06-05T09:08:37.997Z,71.70
2018-06-05T09:13:32.570Z,73.00
2018-06-05T09:18:27.224Z,74.30
2018-06-05T09:23:21.747Z,72.90
2018-06-05T09:28:16.300Z,75.40
2018-06-05T09:33:10.950Z,74.50
2018-06-05T09:38:05.574Z,73.80
2018-06-05T09:43:00.119Z,72.80
2018-06-05T09:47:54.701Z,73.50
2018-06-05T09:52:49.280Z,72.30
2018-06-05T09:57:43.862Z,70.90
2018-06-05T10:02:38.367Z,70.50
2018-06-05T10:07:32.895Z,71.60
2018-06-05T10:12:27.441Z,72.00
2018-06-05T10:17:21.954Z,70.10
2018-06-05T10:22:16.553Z,69.90
2018-06-05T10:27:11.085Z,69.70
2018-06-05T10:32:05.918Z,70.40
2018-06-05T10:37:00.514Z,68.40
2018-06-05T10:41:55.072Z,70.20
2018-06-05T10:46:49.669Z,66.20
2018-06-05T10:51:44.257Z,67.30
2018-06-05T10:56:38.871Z,67.80
2018-06-05T11:01:33.437Z,66.70
2018-06-05T11:06:28.039Z,63.10
2018-06-05T11:11:22.673Z,61.70
2018-06-05T11:16:17.222Z,57.60
2018-06-05T11:21:11.778Z,53.30
2018-06-05T11:26:06.362Z,57.90
2018-06-05T11:31:00.902Z,58.30
2018-06-05T11:35:55.471Z,56.00
2018-06-05T11:40:50.061Z,56.70
2018-06-05T11:45:44.567Z,59.00
2018-06-05T11:50:39.141Z,54.40
2018-06-05T11:55:33.730Z,55.70
2018-06-05T12:00:28.376Z,53.00
2018-06-05T12:05:22.928Z,54.00
2018-06-05T12:10:17.546Z,56.10
2018-06-05T12:15:12.083Z,53.90
2018-06-05T12:20:06.713Z,54.40
2018-06-05T12:25:01.340Z,57.90
2018-06-05T12:29:55.959Z,54.90
2018-06-05T12:34:50.538Z,57.10
2018-06-05T12:39:45.126Z,58.80
2018-06-05T12:44:39.728Z,58.90
2018-06-05T12:49:34.297Z,57.90
2018-06-05T12:54:28.954Z,57.80
2018-06-05T13:04:18.002Z,59.20
2018-06-05T13:09:12.542Z,57.10
2018-06-05T13:14:07.147Z,61.40
2018-06-05T13:19:01.799Z,59.70
2018-06-05T13:23:56.407Z,60.80
2018-06-05T13:28:51.915Z,61.30
2018-06-05T13:33:46.588Z,59.80
2018-06-05T13:38:41.238Z,58.80
2018-06-05T13:43:35.845Z,56.80
2018-06-05T13:48:30.498Z,61.10
2018-06-05T13:53:25.152Z,57.00
2018-06-05T13:58:19.817Z,56.10
2018-06-05T14:03:16.533Z,57.90
2018-06-05T14:08:11.167Z,59.10
2018-06-05T14:13:05.752Z,57.30
2018-06-05T14:18:00.429Z,56.70
2018-06-05T14:22:55.079Z,56.70
2018-06-05T14:27:49.679Z,55.90
2018-06-05T14:32:44.271Z,55.00
2018-06-05T14:37:38.931Z,55.20
2018-06-05T14:42:33.514Z,57.80
2018-06-05T14:47:28.147Z,57.50
2018-06-05T14:52:22.734Z,55.00
2018-06-05T14:57:17.415Z,54.50
2018-06-05T15:02:12.018Z,49.80
2018-06-05T15:07:06.806Z,52.10
2018-06-05T15:12:01.425Z,58.10
2018-06-05T15:16:56.050Z,52.90
2018-06-05T15:21:50.727Z,51.70
2018-06-05T15:26:45.375Z,49.50
2018-06-05T15:31:39.987Z,49.70
2018-06-05T15:36:34.610Z,48.00
2018-06-05T15:41:29.219Z,47.20
2018-06-05T15:46:23.766Z,46.60
2018-06-05T15:51:18.355Z,48.80
2018-06-05T15:56:12.963Z,44.20
2018-06-05T16:01:07.567Z,45.50
2018-06-05T16:06:02.177Z,45.00
2018-06-05T16:10:56.824Z,43.50
2018-06-05T16:15:51.399Z,46.70
2018-06-05T16:20:45.981Z,45.70
2018-06-05T16:25:40.606Z,49.20
2018-06-05T16:30:35.268Z,45.70
2018-06-05T16:35:30.979Z,44.50
2018-06-05T16:40:25.591Z,45.50
2018-06-05T16:45:20.158Z,45.10
2018-06-05T16:50:14.711Z,48.60
2018-06-05T16:55:09.331Z,46.40
2018-06-05T17:00:03.978Z,45.80
2018-06-05T17:04:58.568Z,46.90
2018-06-05T17:09:53.122Z,46.70
2018-06-05T17:14:47.747Z,49.00
2018-06-05T17:19:42.384Z,46.50
2018-06-05T17:24:36.987Z,49.30
2018-06-05T17:29:31.569Z,49.30
2018-06-05T17:34:26.142Z,49.90
2018-06-05T17:39:20.730Z,50.60
2018-06-05T17:44:17.181Z,50.80
2018-06-05T17:49:11.747Z,48.90
2018-06-05T17:54:06.457Z,49.10
2018-06-05T17:59:01.066Z,52.80
2018-06-05T18:03:55.764Z,51.00
2018-06-05T18:08:50.263Z,49.30
2018-06-05T18:13:44.824Z,48.40
2018-06-05T18:18:39.412Z,51.50
2018-06-05T18:23:34.004Z,53.20
2018-06-05T18:28:28.583Z,50.30
2018-06-05T18:33:23.230Z,50.60
2018-06-05T18:38:17.989Z,53.00
2018-06-05T18:43:12.594Z,52.60
2018-06-05T18:48:07.267Z,52.90
2018-06-05T18:53:01.836Z,52.90
2018-06-05T18:57:56.441Z,54.20
2018-06-05T19:02:51.119Z,52.50
2018-06-05T19:07:45.728Z,54.30
2018-06-05T19:12:40.351Z,55.30
2018-06-05T19:17:34.991Z,54.60
2018-06-05T19:22:29.542Z,55.40
2018-06-05T19:27:24.116Z,56.40
2018-06-05T19:32:18.760Z,57.80
2018-06-05T19:37:13.401Z,57.20
2018-06-05T19:42:08.106Z,58.80
2018-06-05T19:47:02.677Z,58.50
2018-06-05T19:51:57.262Z,60.00
2018-06-05T19:56:51.911Z,62.10
2018-06-05T20:01:46.530Z,63.70
2018-06-05T20:06:41.230Z,63.00
2018-06-05T20:11:35.955Z,63.90
2018-06-05T20:16:30.622Z,65.20
2018-06-05T20:21:25.225Z,64.80
2018-06-05T20:26:19.906Z,66.20
2018-06-05T20:31:14.515Z,69.30
2018-06-05T20:36:09.237Z,70.30
2018-06-05T20:41:03.915Z,70.40
2018-06-05T20:45:58.532Z,71.70
2018-06-05T20:50:53.247Z,72.00
2018-06-05T20:55:47.950Z,74.10
2018-06-05T21:00:43.630Z,74.10
2018-06-05T21:05:38.292Z,74.20
2018-06-05T21:10:32.996Z,74.00
2018-06-05T21:15:27.619Z,73.80
2018-06-05T21:25:16.551Z,75.00
2018-06-05T21:30:11.156Z,74.50
2018-06-05T21:35:05.820Z,75.90
2018-06-05T21:40:00.415Z,72.40
2018-06-05T21:44:55.064Z,72.60
2018-06-05T21:49:49.726Z,73.10
2018-06-05T21:54:44.471Z,73.10
2018-06-05T21:59:39.059Z,74.00
2018-06-05T22:04:33.671Z,73.70
2018-06-05T22:09:28.259Z,73.80
2018-06-05T22:14:22.874Z,73.90
2018-06-05T22:24:14.394Z,73.90
2018-06-05T22:29:08.989Z,76.40
2018-06-05T22:34:03.589Z,77.90
2018-06-05T22:43:52.439Z,77.00
2018-06-05T22:48:47.001Z,77.50
2018-06-05T22:53:41.592Z,77.30
2018-06-05T22:58:36.196Z,79.00
2018-06-05T23:03:30.779Z,78.60
2018-06-05T23:08:25.392Z,78.30
2018-06-05T23:13:19.980Z,78.50
2018-06-05T23:18:14.534Z,78.80
2018-06-05T23:23:09.081Z,78.60
2018-06-05T23:28:03.707Z,78.60
2018-06-05T23:32:58.313Z,77.30
2018-06-05T23:37:52.875Z,77.60
2018-06-05T23:42:47.428Z,77.00
2018-06-05T23:47:41.987Z,76.70
2018-06-05T23:52:36.558Z,76.00
2018-06-05T23:57:31.123Z,77.50
